Detalii statie AGRIND TASNAD [0000197A]

Toti senzorii

Date Temperatura solului [C]Precipitatii [mm]Voltaj baterie [mV]Leaf Wetness [Min]HC Air temperature [C]HC Relative humidity [%]Punctul de roua [C]
medieminmaxsumaultimatimpmedieminmaxmediemediemin
2017-12-10 22:00:00 3.1 3.1 3.2 0 6922 -0.67 -0.67 -0.67 86.79 -2.4 -2.5
2017-12-10 22:10:00 3.2 3.2 3.2 0 6904 -0.66 -0.67 -0.65 88.03 -2.3 -2.4
2017-12-10 22:20:00 3.3 3.2 3.4 0 6914 -0.45 -0.58 -0.33 84.51 -2.6 -2.9
2017-12-10 22:30:00 3.1 3.1 3.2 0 6922 0.1 0.04 0.17 74.95 -3.8 -3.9
2017-12-10 22:40:00 3.1 3.1 3.2 0 6922 0.61 0.51 0.71 70.01 -4.2 -4.4
2017-12-10 22:50:00 3.1 3.1 3.2 0 6922 1 0.96 1.05 63.71 -5.1 -5.3
2017-12-10 23:00:00 3 3 3.1 0 6922 1.18 1.14 1.22 60.74 -5.5 -5.6
2017-12-10 23:10:00 3.1 3.1 3.2 0 6894 1.21 1.19 1.23 60.22 -5.6 -5.7
2017-12-10 23:20:00 3.1 3.1 3.2 0 6914 1.26 1.24 1.29 58.81 -5.9 -6
2017-12-10 23:30:00 3.1 3.1 3.2 0 6914 1.41 1.37 1.45 58.2 -6 -6.1
2017-12-10 23:40:00 3 3 3.1 0 6922 1.4 1.37 1.43 58.36 -5.9 -6.1
2017-12-10 23:50:00 3 3 3.1 0 6922 1.38 1.36 1.4 60.53 -5.4 -5.5
2017-12-11 00:00:00 2.9 2.9 2.9 0 6914 1.57 1.54 1.6 61.18 -5 -5.1
2017-12-11 00:10:00 3.2 3.2 3.2 0 6864 1.91 1.89 1.94 58.89 -5.3 -5.5
2017-12-11 00:20:00 3.1 3.1 3.2 0 6904 1.9 1.87 1.93 61.23 -4.7 -4.9
2017-12-11 00:30:00 3.2 3.2 3.2 0 6904 2.03 2 2.07 60.62 -4.8 -5.1
2017-12-11 00:40:00 3.1 3 3.2 0 6904 2.18 2.16 2.2 60.76 -4.6 -4.7
2017-12-11 00:50:00 3.1 3 3.2 0 6914 2.15 2.11 2.2 62.64 -4.2 -4.3
2017-12-11 01:00:00 3 2.9 3.2 0 6904 2.27 2.22 2.32 62.62 -4 -4.1
2017-12-11 01:10:00 3 3 3 0 6884 2.32 2.3 2.34 62.91 -4.1 -4.1
2017-12-11 01:20:00 3 3 3 0 6904 2.41 2.35 2.47 62.93 -3.9 -4
2017-12-11 01:30:00 3 3 3 0 6904 2.68 2.65 2.72 61.56 -4 -4.3
2017-12-11 01:40:00 3 3 3.1 0 6904 2.81 2.81 2.81 60.47 -4.1 -4.1
2017-12-11 01:50:00 3 3 3 0 6904 2.87 2.85 2.89 60.25 -4.2 -4.3
2017-12-11 02:00:00 3 3 3 0 6904 2.79 2.74 2.85 62.49 -3.7 -3.9
2017-12-11 02:10:00 3 3 3.1 0 6884 3.05 2.99 3.11 60.56 -3.9 -4
2017-12-11 02:20:00 3 3 3 0 6904 2.95 2.9 3 61.14 -3.8 -3.9
2017-12-11 02:30:00 3.1 3.1 3.1 0 6894 2.81 2.78 2.85 63.62 -3.3 -3.4
2017-12-11 02:40:00 3.1 3.1 3.2 0 6894 2.81 2.81 2.82 66.88 -2.7 -3
2017-12-11 02:50:00 3 3 3.1 0 6904 3.51 3.36 3.67 69.81 -1.5 -1.9
2017-12-11 03:00:00 2.9 2.9 3 0 6904 3.64 3.61 3.67 73.63 -0.7 -0.9
2017-12-11 03:10:00 3 3 3.1 0 6884 3.43 3.33 3.54 79.1 0.2 0
2017-12-11 03:20:00 3 3 3 0 6894 2.89 2.74 3.04 88.08 0.9 0.7
2017-12-11 03:30:00 3 3 3 0 6894 2.31 2.23 2.4 97.85 1.9 1.8
2017-12-11 03:40:00 3 3 3.1 0 6894 2.16 2.12 2.21 100 2.1 2.1
2017-12-11 03:50:00 3.1 3.1 3.2 0 6894 2.17 2.17 2.18 100 2.1 2.1
2017-12-11 04:00:00 3 3 3.1 0 6904 2.23 2.17 2.29 100 2.1 2.1
2017-12-11 04:10:00 3.1 3.1 3.1 0 6874 2.34 2.34 2.34 100 2.3 2.3
2017-12-11 04:20:00 3 3 3.1 0 6884 2.39 2.37 2.41 100 2.3 2.3
2017-12-11 04:30:00 3 3 3 0 6884 2.57 2.54 2.6 100 2.5 2.5
2017-12-11 04:40:00 3.1 3.1 3.2 0 6894 2.53 2.48 2.58 100 2.4 2.4
2017-12-11 04:50:00 3.1 3 3.2 0 6894 2.52 2.49 2.55 100 2.4 2.4
2017-12-11 05:00:00 3.1 3.1 3.2 0 6884 2.55 2.55 2.56 100 2.5 2.5
2017-12-11 05:10:00 3.1 3 3.2 0 6864 2.52 2.48 2.56 100 2.4 2.4
2017-12-11 05:20:00 3.2 3.2 3.2 0 6884 2.4 2.36 2.45 100 2.3 2.3
2017-12-11 05:30:00 3.1 3.1 3.2 0 6884 2.6 2.52 2.69 100 2.5 2.5
2017-12-11 05:40:00 3.2 3.2 3.2 0 6884 2.27 2.23 2.32 100 2.2 2.2
2017-12-11 05:50:00 3.1 3.1 3.2 0 6884 2.27 2.26 2.29 100 2.2 2.2